sensor_id;sensor_type;location;lat;lon;timestamp;P1;durP1;ratioP1;P2;durP2;ratioP2
55172;SDS011;41061;52.822;6.860;2022-08-19T00:01:25;3.33;;;3.03;;
55172;SDS011;41061;52.822;6.860;2022-08-19T00:03:52;5.25;;;2.58;;
55172;SDS011;41061;52.822;6.860;2022-08-19T00:06:17;3.15;;;2.63;;
55172;SDS011;41061;52.822;6.860;2022-08-19T00:08:43;3.85;;;2.92;;
55172;SDS011;41061;52.822;6.860;2022-08-19T00:11:09;6.60;;;2.67;;
55172;SDS011;41061;52.822;6.860;2022-08-19T00:13:36;3.28;;;2.63;;
55172;SDS011;41061;52.822;6.860;2022-08-19T00:16:03;6.00;;;3.35;;
55172;SDS011;41061;52.822;6.860;2022-08-19T00:18:30;3.85;;;3.22;;
55172;SDS011;41061;52.822;6.860;2022-08-19T00:20:57;5.10;;;3.97;;
55172;SDS011;41061;52.822;6.860;2022-08-19T00:23:23;7.47;;;3.95;;
55172;SDS011;41061;52.822;6.860;2022-08-19T00:25:49;6.45;;;4.82;;
55172;SDS011;41061;52.822;6.860;2022-08-19T00:28:15;6.47;;;4.55;;
55172;SDS011;41061;52.822;6.860;2022-08-19T00:30:41;5.90;;;4.35;;
55172;SDS011;41061;52.822;6.860;2022-08-19T00:33:07;6.47;;;4.05;;
55172;SDS011;41061;52.822;6.860;2022-08-19T00:35:33;7.05;;;3.80;;
55172;SDS011;41061;52.822;6.860;2022-08-19T00:37:58;20.05;;;4.13;;
55172;SDS011;41061;52.822;6.860;2022-08-19T00:40:24;5.78;;;4.15;;
55172;SDS011;41061;52.822;6.860;2022-08-19T00:42:51;9.15;;;4.75;;
55172;SDS011;41061;52.822;6.860;2022-08-19T00:45:20;7.78;;;4.80;;
55172;SDS011;41061;52.822;6.860;2022-08-19T00:47:47;9.95;;;5.35;;
55172;SDS011;41061;52.822;6.860;2022-08-19T00:50:15;6.35;;;5.03;;
55172;SDS011;41061;52.822;6.860;2022-08-19T00:52:43;6.97;;;4.57;;
55172;SDS011;41061;52.822;6.860;2022-08-19T00:55:16;6.25;;;5.00;;
55172;SDS011;41061;52.822;6.860;2022-08-19T00:57:46;7.45;;;6.03;;
55172;SDS011;41061;52.822;6.860;2022-08-19T01:00:17;11.40;;;6.28;;
55172;SDS011;41061;52.822;6.860;2022-08-19T01:02:44;8.30;;;6.43;;
55172;SDS011;41061;52.822;6.860;2022-08-19T01:05:14;9.20;;;5.70;;
55172;SDS011;41061;52.822;6.860;2022-08-19T01:07:46;8.95;;;6.28;;
55172;SDS011;41061;52.822;6.860;2022-08-19T01:10:18;7.93;;;6.63;;
55172;SDS011;41061;52.822;6.860;2022-08-19T01:12:47;11.07;;;6.60;;
55172;SDS011;41061;52.822;6.860;2022-08-19T01:15:17;10.25;;;7.82;;
55172;SDS011;41061;52.822;6.860;2022-08-19T01:17:46;13.48;;;7.63;;
55172;SDS011;41061;52.822;6.860;2022-08-19T01:20:14;11.02;;;8.00;;
55172;SDS011;41061;52.822;6.860;2022-08-19T01:25:10;10.30;;;7.80;;
55172;SDS011;41061;52.822;6.860;2022-08-19T01:27:40;10.07;;;7.85;;
55172;SDS011;41061;52.822;6.860;2022-08-19T01:30:08;11.23;;;7.72;;
55172;SDS011;41061;52.822;6.860;2022-08-19T01:32:36;11.25;;;7.50;;
55172;SDS011;41061;52.822;6.860;2022-08-19T01:35:02;7.90;;;7.10;;
55172;SDS011;41061;52.822;6.860;2022-08-19T01:37:29;10.07;;;7.50;;
55172;SDS011;41061;52.822;6.860;2022-08-19T01:39:55;11.02;;;8.27;;
55172;SDS011;41061;52.822;6.860;2022-08-19T01:42:21;9.70;;;7.20;;
55172;SDS011;41061;52.822;6.860;2022-08-19T01:44:47;10.40;;;7.93;;
55172;SDS011;41061;52.822;6.860;2022-08-19T01:47:12;9.77;;;7.78;;
55172;SDS011;41061;52.822;6.860;2022-08-19T01:49:38;8.10;;;6.55;;
55172;SDS011;41061;52.822;6.860;2022-08-19T01:52:04;10.15;;;6.03;;
55172;SDS011;41061;52.822;6.860;2022-08-19T01:54:30;9.18;;;5.88;;
55172;SDS011;41061;52.822;6.860;2022-08-19T01:57:00;9.07;;;6.10;;
55172;SDS011;41061;52.822;6.860;2022-08-19T01:59:31;8.75;;;5.53;;
55172;SDS011;41061;52.822;6.860;2022-08-19T02:01:57;9.40;;;5.90;;
55172;SDS011;41061;52.822;6.860;2022-08-19T02:04:23;6.50;;;5.90;;
55172;SDS011;41061;52.822;6.860;2022-08-19T02:06:50;9.35;;;6.55;;
55172;SDS011;41061;52.822;6.860;2022-08-19T02:09:16;10.13;;;6.50;;
55172;SDS011;41061;52.822;6.860;2022-08-19T02:11:41;9.73;;;6.60;;
55172;SDS011;41061;52.822;6.860;2022-08-19T02:14:07;10.85;;;6.93;;
55172;SDS011;41061;52.822;6.860;2022-08-19T02:16:33;10.70;;;7.10;;
55172;SDS011;41061;52.822;6.860;2022-08-19T02:19:00;7.95;;;6.13;;
55172;SDS011;41061;52.822;6.860;2022-08-19T02:21:26;9.20;;;6.50;;
55172;SDS011;41061;52.822;6.860;2022-08-19T02:23:53;7.65;;;5.70;;
55172;SDS011;41061;52.822;6.860;2022-08-19T02:26:18;7.30;;;5.95;;
55172;SDS011;41061;52.822;6.860;2022-08-19T02:28:44;6.55;;;5.90;;
55172;SDS011;41061;52.822;6.860;2022-08-19T02:31:11;7.15;;;5.65;;
55172;SDS011;41061;52.822;6.860;2022-08-19T02:33:40;9.95;;;6.50;;
55172;SDS011;41061;52.822;6.860;2022-08-19T02:36:06;7.22;;;6.10;;
55172;SDS011;41061;52.822;6.860;2022-08-19T02:38:33;8.50;;;5.82;;
55172;SDS011;41061;52.822;6.860;2022-08-19T02:41:02;8.65;;;6.85;;
55172;SDS011;41061;52.822;6.860;2022-08-19T02:43:31;8.60;;;6.25;;
55172;SDS011;41061;52.822;6.860;2022-08-19T02:46:01;7.60;;;6.05;;
55172;SDS011;41061;52.822;6.860;2022-08-19T02:48:35;10.27;;;6.57;;
55172;SDS011;41061;52.822;6.860;2022-08-19T02:51:01;8.90;;;7.28;;
55172;SDS011;41061;52.822;6.860;2022-08-19T02:53:27;10.68;;;7.05;;
55172;SDS011;41061;52.822;6.860;2022-08-19T02:55:53;10.10;;;7.32;;
55172;SDS011;41061;52.822;6.860;2022-08-19T02:58:19;11.95;;;7.63;;
55172;SDS011;41061;52.822;6.860;2022-08-19T03:00:49;7.93;;;6.75;;
55172;SDS011;41061;52.822;6.860;2022-08-19T03:03:16;8.43;;;5.47;;
55172;SDS011;41061;52.822;6.860;2022-08-19T03:05:43;7.45;;;5.90;;
55172;SDS011;41061;52.822;6.860;2022-08-19T03:08:09;9.75;;;5.35;;
55172;SDS011;41061;52.822;6.860;2022-08-19T03:10:44;8.43;;;5.68;;
55172;SDS011;41061;52.822;6.860;2022-08-19T03:13:15;9.15;;;5.07;;
55172;SDS011;41061;52.822;6.860;2022-08-19T03:15:42;11.13;;;5.90;;
55172;SDS011;41061;52.822;6.860;2022-08-19T03:18:10;8.60;;;4.85;;
55172;SDS011;41061;52.822;6.860;2022-08-19T03:20:40;8.10;;;5.45;;
55172;SDS011;41061;52.822;6.860;2022-08-19T03:23:10;14.18;;;6.45;;
55172;SDS011;41061;52.822;6.860;2022-08-19T03:25:41;8.32;;;5.50;;
55172;SDS011;41061;52.822;6.860;2022-08-19T03:28:11;9.52;;;5.93;;
55172;SDS011;41061;52.822;6.860;2022-08-19T03:30:39;9.65;;;6.47;;
55172;SDS011;41061;52.822;6.860;2022-08-19T03:33:06;7.57;;;5.40;;
55172;SDS011;41061;52.822;6.860;2022-08-19T03:35:33;10.13;;;7.45;;
55172;SDS011;41061;52.822;6.860;2022-08-19T03:38:02;13.07;;;6.13;;
55172;SDS011;41061;52.822;6.860;2022-08-19T03:40:31;16.98;;;6.03;;
55172;SDS011;41061;52.822;6.860;2022-08-19T03:42:59;7.20;;;4.60;;
55172;SDS011;41061;52.822;6.860;2022-08-19T03:45:25;5.70;;;3.30;;
55172;SDS011;41061;52.822;6.860;2022-08-19T03:47:52;6.38;;;3.92;;
55172;SDS011;41061;52.822;6.860;2022-08-19T03:50:18;5.30;;;3.88;;
55172;SDS011;41061;52.822;6.860;2022-08-19T03:52:47;9.35;;;6.05;;
55172;SDS011;41061;52.822;6.860;2022-08-19T03:55:17;10.85;;;6.97;;
55172;SDS011;41061;52.822;6.860;2022-08-19T03:57:43;8.85;;;7.50;;
55172;SDS011;41061;52.822;6.860;2022-08-19T04:00:11;9.45;;;7.10;;
55172;SDS011;41061;52.822;6.860;2022-08-19T04:02:37;8.10;;;6.75;;
55172;SDS011;41061;52.822;6.860;2022-08-19T04:05:02;9.25;;;6.78;;
55172;SDS011;41061;52.822;6.860;2022-08-19T04:07:28;9.20;;;6.95;;
55172;SDS011;41061;52.822;6.860;2022-08-19T04:09:54;6.93;;;6.22;;
55172;SDS011;41061;52.822;6.860;2022-08-19T04:12:19;8.25;;;6.50;;
55172;SDS011;41061;52.822;6.860;2022-08-19T04:14:45;8.48;;;7.03;;
55172;SDS011;41061;52.822;6.860;2022-08-19T04:17:11;7.95;;;7.15;;
55172;SDS011;41061;52.822;6.860;2022-08-19T04:19:39;9.98;;;7.97;;
55172;SDS011;41061;52.822;6.860;2022-08-19T04:22:06;12.73;;;7.82;;
55172;SDS011;41061;52.822;6.860;2022-08-19T04:24:32;11.35;;;7.95;;
55172;SDS011;41061;52.822;6.860;2022-08-19T04:27:02;9.80;;;7.40;;
55172;SDS011;41061;52.822;6.860;2022-08-19T04:29:28;9.38;;;6.63;;
55172;SDS011;41061;52.822;6.860;2022-08-19T04:31:55;12.05;;;7.40;;
55172;SDS011;41061;52.822;6.860;2022-08-19T04:34:22;7.80;;;6.22;;
55172;SDS011;41061;52.822;6.860;2022-08-19T04:36:51;9.43;;;6.00;;
55172;SDS011;41061;52.822;6.860;2022-08-19T04:39:23;7.55;;;6.22;;
55172;SDS011;41061;52.822;6.860;2022-08-19T04:42:11;7.63;;;6.53;;
55172;SDS011;41061;52.822;6.860;2022-08-19T04:44:56;10.82;;;6.43;;
55172;SDS011;41061;52.822;6.860;2022-08-19T04:47:22;7.68;;;6.18;;
55172;SDS011;41061;52.822;6.860;2022-08-19T04:49:47;7.88;;;6.72;;
55172;SDS011;41061;52.822;6.860;2022-08-19T04:52:13;7.00;;;6.10;;
55172;SDS011;41061;52.822;6.860;2022-08-19T04:54:39;9.70;;;7.57;;
55172;SDS011;41061;52.822;6.860;2022-08-19T04:57:06;8.68;;;7.35;;
55172;SDS011;41061;52.822;6.860;2022-08-19T04:59:35;10.70;;;6.85;;
55172;SDS011;41061;52.822;6.860;2022-08-19T05:02:02;8.75;;;6.57;;
55172;SDS011;41061;52.822;6.860;2022-08-19T05:04:28;8.02;;;5.47;;
55172;SDS011;41061;52.822;6.860;2022-08-19T05:06:56;9.73;;;6.10;;
55172;SDS011;41061;52.822;6.860;2022-08-19T05:09:21;7.55;;;6.15;;
55172;SDS011;41061;52.822;6.860;2022-08-19T05:11:47;7.55;;;6.40;;
55172;SDS011;41061;52.822;6.860;2022-08-19T05:14:15;7.20;;;5.90;;
55172;SDS011;41061;52.822;6.860;2022-08-19T05:16:41;11.02;;;6.05;;
55172;SDS011;41061;52.822;6.860;2022-08-19T05:19:07;6.78;;;5.85;;
55172;SDS011;41061;52.822;6.860;2022-08-19T05:21:51;7.13;;;6.10;;
55172;SDS011;41061;52.822;6.860;2022-08-19T05:24:36;7.55;;;5.10;;
55172;SDS011;41061;52.822;6.860;2022-08-19T05:27:02;7.75;;;5.40;;
55172;SDS011;41061;52.822;6.860;2022-08-19T05:29:29;8.20;;;5.97;;
55172;SDS011;41061;52.822;6.860;2022-08-19T05:31:59;8.43;;;5.78;;
55172;SDS011;41061;52.822;6.860;2022-08-19T05:34:27;9.68;;;6.43;;
55172;SDS011;41061;52.822;6.860;2022-08-19T05:36:54;7.93;;;6.18;;
55172;SDS011;41061;52.822;6.860;2022-08-19T05:39:22;10.07;;;6.43;;
55172;SDS011;41061;52.822;6.860;2022-08-19T05:41:51;8.30;;;5.85;;
55172;SDS011;41061;52.822;6.860;2022-08-19T05:44:19;9.43;;;6.07;;
55172;SDS011;41061;52.822;6.860;2022-08-19T05:46:46;8.98;;;6.25;;
55172;SDS011;41061;52.822;6.860;2022-08-19T05:49:13;7.97;;;5.97;;
55172;SDS011;41061;52.822;6.860;2022-08-19T05:51:40;10.15;;;5.90;;
55172;SDS011;41061;52.822;6.860;2022-08-19T05:54:07;6.75;;;5.60;;
55172;SDS011;41061;52.822;6.860;2022-08-19T05:56:33;8.35;;;5.93;;
55172;SDS011;41061;52.822;6.860;2022-08-19T05:59:03;7.20;;;6.43;;
55172;SDS011;41061;52.822;6.860;2022-08-19T06:01:35;7.57;;;6.78;;
55172;SDS011;41061;52.822;6.860;2022-08-19T06:04:02;8.27;;;7.28;;
55172;SDS011;41061;52.822;6.860;2022-08-19T06:06:28;11.02;;;9.35;;
55172;SDS011;41061;52.822;6.860;2022-08-19T06:08:54;13.25;;;10.38;;
55172;SDS011;41061;52.822;6.860;2022-08-19T06:11:21;13.02;;;9.38;;
55172;SDS011;41061;52.822;6.860;2022-08-19T06:13:51;10.38;;;8.70;;
55172;SDS011;41061;52.822;6.860;2022-08-19T06:16:19;16.30;;;10.80;;
55172;SDS011;41061;52.822;6.860;2022-08-19T06:18:47;12.23;;;9.70;;
55172;SDS011;41061;52.822;6.860;2022-08-19T06:21:16;11.05;;;9.40;;
55172;SDS011;41061;52.822;6.860;2022-08-19T06:23:44;11.85;;;10.30;;
55172;SDS011;41061;52.822;6.860;2022-08-19T06:26:13;13.32;;;9.73;;
55172;SDS011;41061;52.822;6.860;2022-08-19T06:28:40;17.80;;;11.02;;
55172;SDS011;41061;52.822;6.860;2022-08-19T06:31:10;17.15;;;11.68;;
55172;SDS011;41061;52.822;6.860;2022-08-19T06:33:37;15.18;;;11.27;;
55172;SDS011;41061;52.822;6.860;2022-08-19T06:36:04;15.10;;;11.52;;
55172;SDS011;41061;52.822;6.860;2022-08-19T06:38:30;15.50;;;10.52;;
55172;SDS011;41061;52.822;6.860;2022-08-19T06:41:04;15.07;;;10.15;;
55172;SDS011;41061;52.822;6.860;2022-08-19T06:43:30;11.70;;;9.80;;
55172;SDS011;41061;52.822;6.860;2022-08-19T06:45:56;14.50;;;11.23;;
55172;SDS011;41061;52.822;6.860;2022-08-19T06:48:22;17.13;;;12.20;;
55172;SDS011;41061;52.822;6.860;2022-08-19T06:50:47;14.75;;;11.65;;
55172;SDS011;41061;52.822;6.860;2022-08-19T06:53:15;14.00;;;11.18;;
55172;SDS011;41061;52.822;6.860;2022-08-19T06:55:40;15.45;;;11.50;;
55172;SDS011;41061;52.822;6.860;2022-08-19T06:58:06;15.88;;;10.95;;
55172;SDS011;41061;52.822;6.860;2022-08-19T07:00:32;15.35;;;11.80;;
55172;SDS011;41061;52.822;6.860;2022-08-19T07:02:58;14.65;;;11.18;;
55172;SDS011;41061;52.822;6.860;2022-08-19T07:05:25;14.20;;;11.63;;
55172;SDS011;41061;52.822;6.860;2022-08-19T07:07:51;18.23;;;11.63;;
55172;SDS011;41061;52.822;6.860;2022-08-19T07:10:16;20.75;;;11.00;;
55172;SDS011;41061;52.822;6.860;2022-08-19T07:12:43;17.80;;;10.02;;
55172;SDS011;41061;52.822;6.860;2022-08-19T07:15:09;12.23;;;10.63;;
55172;SDS011;41061;52.822;6.860;2022-08-19T07:17:36;14.82;;;10.65;;
55172;SDS011;41061;52.822;6.860;2022-08-19T07:20:05;11.82;;;9.52;;
55172;SDS011;41061;52.822;6.860;2022-08-19T07:22:34;13.43;;;9.55;;
55172;SDS011;41061;52.822;6.860;2022-08-19T07:25:00;13.35;;;10.48;;
55172;SDS011;41061;52.822;6.860;2022-08-19T07:27:27;11.13;;;9.07;;
55172;SDS011;41061;52.822;6.860;2022-08-19T07:29:53;13.80;;;10.82;;
55172;SDS011;41061;52.822;6.860;2022-08-19T07:32:19;13.55;;;10.60;;
55172;SDS011;41061;52.822;6.860;2022-08-19T07:34:44;13.57;;;10.82;;
55172;SDS011;41061;52.822;6.860;2022-08-19T07:37:10;15.32;;;10.05;;
55172;SDS011;41061;52.822;6.860;2022-08-19T07:39:36;14.02;;;10.93;;
55172;SDS011;41061;52.822;6.860;2022-08-19T07:42:07;15.45;;;10.80;;
55172;SDS011;41061;52.822;6.860;2022-08-19T07:44:35;13.55;;;11.02;;
55172;SDS011;41061;52.822;6.860;2022-08-19T07:47:01;13.02;;;10.88;;
55172;SDS011;41061;52.822;6.860;2022-08-19T07:49:28;16.45;;;11.25;;
55172;SDS011;41061;52.822;6.860;2022-08-19T07:52:02;13.20;;;10.25;;
55172;SDS011;41061;52.822;6.860;2022-08-19T07:54:32;12.98;;;10.75;;
55172;SDS011;41061;52.822;6.860;2022-08-19T07:57:00;14.20;;;10.13;;
55172;SDS011;41061;52.822;6.860;2022-08-19T07:59:27;12.70;;;10.93;;
55172;SDS011;41061;52.822;6.860;2022-08-19T08:01:53;17.92;;;10.43;;
55172;SDS011;41061;52.822;6.860;2022-08-19T08:04:20;12.02;;;10.55;;
55172;SDS011;41061;52.822;6.860;2022-08-19T08:07:05;13.20;;;10.30;;
55172;SDS011;41061;52.822;6.860;2022-08-19T08:09:50;11.48;;;10.23;;
55172;SDS011;41061;52.822;6.860;2022-08-19T08:12:18;13.23;;;10.77;;
55172;SDS011;41061;52.822;6.860;2022-08-19T08:14:54;11.45;;;10.25;;
55172;SDS011;41061;52.822;6.860;2022-08-19T08:17:23;12.52;;;9.93;;
55172;SDS011;41061;52.822;6.860;2022-08-19T08:19:50;11.90;;;10.20;;
55172;SDS011;41061;52.822;6.860;2022-08-19T08:22:17;11.95;;;10.27;;
55172;SDS011;41061;52.822;6.860;2022-08-19T08:25:05;13.00;;;8.65;;
55172;SDS011;41061;52.822;6.860;2022-08-19T08:27:37;12.05;;;9.13;;
55172;SDS011;41061;52.822;6.860;2022-08-19T08:30:08;12.85;;;9.10;;
55172;SDS011;41061;52.822;6.860;2022-08-19T08:32:36;11.00;;;9.18;;
55172;SDS011;41061;52.822;6.860;2022-08-19T08:35:06;12.65;;;9.73;;
55172;SDS011;41061;52.822;6.860;2022-08-19T08:37:34;12.20;;;9.85;;
55172;SDS011;41061;52.822;6.860;2022-08-19T08:40:09;14.98;;;9.75;;
55172;SDS011;41061;52.822;6.860;2022-08-19T08:42:47;16.25;;;9.60;;
55172;SDS011;41061;52.822;6.860;2022-08-19T08:45:42;13.02;;;8.88;;
55172;SDS011;41061;52.822;6.860;2022-08-19T08:48:22;11.30;;;9.40;;
55172;SDS011;41061;52.822;6.860;2022-08-19T08:50:56;11.80;;;8.82;;
55172;SDS011;41061;52.822;6.860;2022-08-19T08:53:24;13.63;;;10.43;;
55172;SDS011;41061;52.822;6.860;2022-08-19T08:55:50;12.90;;;8.23;;
55172;SDS011;41061;52.822;6.860;2022-08-19T08:58:21;12.07;;;9.18;;
55172;SDS011;41061;52.822;6.860;2022-08-19T09:00:52;12.27;;;9.02;;
55172;SDS011;41061;52.822;6.860;2022-08-19T09:03:22;12.35;;;9.95;;
55172;SDS011;41061;52.822;6.860;2022-08-19T09:05:56;11.45;;;9.25;;
55172;SDS011;41061;52.822;6.860;2022-08-19T09:08:38;10.43;;;9.25;;
55172;SDS011;41061;52.822;6.860;2022-08-19T09:14:08;13.43;;;10.57;;
55172;SDS011;41061;52.822;6.860;2022-08-19T09:16:35;14.13;;;9.80;;
55172;SDS011;41061;52.822;6.860;2022-08-19T09:19:05;9.88;;;8.15;;
55172;SDS011;41061;52.822;6.860;2022-08-19T09:21:32;11.23;;;8.75;;
55172;SDS011;41061;52.822;6.860;2022-08-19T09:24:01;12.05;;;9.43;;
55172;SDS011;41061;52.822;6.860;2022-08-19T09:26:28;10.55;;;8.60;;
55172;SDS011;41061;52.822;6.860;2022-08-19T09:28:55;11.40;;;8.60;;
55172;SDS011;41061;52.822;6.860;2022-08-19T09:31:24;12.30;;;9.55;;
55172;SDS011;41061;52.822;6.860;2022-08-19T09:33:51;10.10;;;8.75;;
55172;SDS011;41061;52.822;6.860;2022-08-19T09:36:21;13.63;;;8.85;;
55172;SDS011;41061;52.822;6.860;2022-08-19T09:38:48;9.32;;;7.03;;
55172;SDS011;41061;52.822;6.860;2022-08-19T09:41:15;11.88;;;8.30;;
55172;SDS011;41061;52.822;6.860;2022-08-19T09:43:48;9.23;;;6.32;;
55172;SDS011;41061;52.822;6.860;2022-08-19T09:46:20;7.60;;;6.30;;
55172;SDS011;41061;52.822;6.860;2022-08-19T09:48:47;7.38;;;6.07;;
55172;SDS011;41061;52.822;6.860;2022-08-19T09:51:16;8.63;;;5.70;;
55172;SDS011;41061;52.822;6.860;2022-08-19T09:53:47;7.55;;;6.00;;
55172;SDS011;41061;52.822;6.860;2022-08-19T09:56:15;7.40;;;5.97;;
55172;SDS011;41061;52.822;6.860;2022-08-19T09:58:43;6.97;;;5.75;;
55172;SDS011;41061;52.822;6.860;2022-08-19T10:01:08;12.55;;;7.53;;
55172;SDS011;41061;52.822;6.860;2022-08-19T10:03:40;9.30;;;6.22;;
55172;SDS011;41061;52.822;6.860;2022-08-19T10:06:05;8.45;;;5.55;;
55172;SDS011;41061;52.822;6.860;2022-08-19T10:08:33;9.45;;;6.85;;
55172;SDS011;41061;52.822;6.860;2022-08-19T10:11:01;9.60;;;5.93;;
55172;SDS011;41061;52.822;6.860;2022-08-19T10:13:29;10.88;;;8.02;;
55172;SDS011;41061;52.822;6.860;2022-08-19T10:16:02;10.73;;;7.10;;
55172;SDS011;41061;52.822;6.860;2022-08-19T10:18:30;7.95;;;6.70;;
55172;SDS011;41061;52.822;6.860;2022-08-19T10:21:12;10.05;;;6.63;;
55172;SDS011;41061;52.822;6.860;2022-08-19T10:23:42;7.63;;;5.03;;
55172;SDS011;41061;52.822;6.860;2022-08-19T10:26:11;8.77;;;5.78;;
55172;SDS011;41061;52.822;6.860;2022-08-19T10:28:42;7.38;;;5.75;;
55172;SDS011;41061;52.822;6.860;2022-08-19T10:31:08;8.75;;;5.93;;
55172;SDS011;41061;52.822;6.860;2022-08-19T10:33:35;5.45;;;4.90;;
55172;SDS011;41061;52.822;6.860;2022-08-19T10:36:03;9.40;;;6.53;;
55172;SDS011;41061;52.822;6.860;2022-08-19T10:38:32;9.45;;;7.80;;
55172;SDS011;41061;52.822;6.860;2022-08-19T10:41:06;7.88;;;6.55;;
55172;SDS011;41061;52.822;6.860;2022-08-19T10:43:37;7.10;;;6.13;;
55172;SDS011;41061;52.822;6.860;2022-08-19T10:46:04;8.95;;;6.38;;
55172;SDS011;41061;52.822;6.860;2022-08-19T10:48:32;8.20;;;6.68;;
55172;SDS011;41061;52.822;6.860;2022-08-19T10:50:58;6.93;;;5.30;;
55172;SDS011;41061;52.822;6.860;2022-08-19T10:53:42;9.05;;;5.97;;
55172;SDS011;41061;52.822;6.860;2022-08-19T10:56:08;8.32;;;6.40;;
55172;SDS011;41061;52.822;6.860;2022-08-19T10:58:52;7.15;;;5.95;;
55172;SDS011;41061;52.822;6.860;2022-08-19T11:01:18;7.85;;;6.53;;
55172;SDS011;41061;52.822;6.860;2022-08-19T11:03:44;7.57;;;5.53;;
55172;SDS011;41061;52.822;6.860;2022-08-19T11:06:10;9.82;;;6.10;;
55172;SDS011;41061;52.822;6.860;2022-08-19T11:08:36;12.48;;;7.68;;
55172;SDS011;41061;52.822;6.860;2022-08-19T11:11:03;10.25;;;6.53;;
55172;SDS011;41061;52.822;6.860;2022-08-19T11:13:31;7.63;;;6.72;;
55172;SDS011;41061;52.822;6.860;2022-08-19T11:16:06;7.47;;;6.05;;
55172;SDS011;41061;52.822;6.860;2022-08-19T11:18:35;7.82;;;6.22;;
55172;SDS011;41061;52.822;6.860;2022-08-19T11:21:07;7.97;;;5.82;;
55172;SDS011;41061;52.822;6.860;2022-08-19T11:23:33;5.93;;;4.55;;
55172;SDS011;41061;52.822;6.860;2022-08-19T11:25:59;6.82;;;5.70;;
55172;SDS011;41061;52.822;6.860;2022-08-19T11:28:26;9.25;;;6.72;;
55172;SDS011;41061;52.822;6.860;2022-08-19T11:30:52;6.50;;;5.80;;
55172;SDS011;41061;52.822;6.860;2022-08-19T11:33:17;6.40;;;5.53;;
55172;SDS011;41061;52.822;6.860;2022-08-19T11:35:44;8.27;;;6.50;;
55172;SDS011;41061;52.822;6.860;2022-08-19T11:38:10;6.60;;;5.53;;
55172;SDS011;41061;52.822;6.860;2022-08-19T11:40:36;7.22;;;5.75;;
55172;SDS011;41061;52.822;6.860;2022-08-19T11:43:02;6.70;;;6.00;;
55172;SDS011;41061;52.822;6.860;2022-08-19T11:45:29;8.15;;;6.07;;
55172;SDS011;41061;52.822;6.860;2022-08-19T11:47:56;6.75;;;5.95;;
55172;SDS011;41061;52.822;6.860;2022-08-19T11:50:22;6.97;;;5.80;;
55172;SDS011;41061;52.822;6.860;2022-08-19T11:52:48;9.05;;;6.15;;
55172;SDS011;41061;52.822;6.860;2022-08-19T11:55:14;8.32;;;7.13;;
55172;SDS011;41061;52.822;6.860;2022-08-19T11:57:40;8.38;;;6.82;;
55172;SDS011;41061;52.822;6.860;2022-08-19T12:00:07;9.80;;;7.32;;
55172;SDS011;41061;52.822;6.860;2022-08-19T12:02:35;7.00;;;6.30;;
55172;SDS011;41061;52.822;6.860;2022-08-19T12:05:00;7.68;;;6.18;;
55172;SDS011;41061;52.822;6.860;2022-08-19T12:07:29;9.18;;;6.30;;
55172;SDS011;41061;52.822;6.860;2022-08-19T12:09:58;6.90;;;5.78;;
55172;SDS011;41061;52.822;6.860;2022-08-19T12:12:24;7.95;;;6.25;;
55172;SDS011;41061;52.822;6.860;2022-08-19T12:14:51;8.23;;;6.03;;
55172;SDS011;41061;52.822;6.860;2022-08-19T12:17:22;9.63;;;7.53;;
55172;SDS011;41061;52.822;6.860;2022-08-19T12:19:49;11.43;;;7.97;;
55172;SDS011;41061;52.822;6.860;2022-08-19T12:22:14;9.88;;;6.70;;
55172;SDS011;41061;52.822;6.860;2022-08-19T12:24:40;9.70;;;7.72;;
55172;SDS011;41061;52.822;6.860;2022-08-19T12:27:06;9.85;;;7.18;;
55172;SDS011;41061;52.822;6.860;2022-08-19T12:29:31;9.18;;;7.20;;
55172;SDS011;41061;52.822;6.860;2022-08-19T12:31:58;9.65;;;6.50;;
55172;SDS011;41061;52.822;6.860;2022-08-19T12:34:26;9.02;;;6.85;;
55172;SDS011;41061;52.822;6.860;2022-08-19T12:36:56;7.18;;;6.35;;
55172;SDS011;41061;52.822;6.860;2022-08-19T12:39:23;8.65;;;6.50;;
55172;SDS011;41061;52.822;6.860;2022-08-19T12:41:49;7.53;;;6.47;;
55172;SDS011;41061;52.822;6.860;2022-08-19T12:44:16;10.82;;;6.50;;
55172;SDS011;41061;52.822;6.860;2022-08-19T12:46:42;7.13;;;5.38;;
55172;SDS011;41061;52.822;6.860;2022-08-19T12:49:07;10.25;;;5.70;;
55172;SDS011;41061;52.822;6.860;2022-08-19T12:51:33;7.40;;;5.60;;
55172;SDS011;41061;52.822;6.860;2022-08-19T12:53:59;6.50;;;5.07;;
55172;SDS011;41061;52.822;6.860;2022-08-19T12:56:26;7.55;;;5.20;;
55172;SDS011;41061;52.822;6.860;2022-08-19T12:58:52;8.60;;;5.38;;
55172;SDS011;41061;52.822;6.860;2022-08-19T13:01:18;8.23;;;5.78;;
55172;SDS011;41061;52.822;6.860;2022-08-19T13:03:44;8.07;;;5.78;;
55172;SDS011;41061;52.822;6.860;2022-08-19T13:06:11;8.55;;;6.30;;
55172;SDS011;41061;52.822;6.860;2022-08-19T13:08:37;9.00;;;5.82;;
55172;SDS011;41061;52.822;6.860;2022-08-19T13:11:22;8.00;;;5.85;;
55172;SDS011;41061;52.822;6.860;2022-08-19T13:13:49;10.13;;;5.60;;
55172;SDS011;41061;52.822;6.860;2022-08-19T13:16:16;6.97;;;5.38;;
55172;SDS011;41061;52.822;6.860;2022-08-19T13:18:43;6.03;;;5.30;;
55172;SDS011;41061;52.822;6.860;2022-08-19T13:21:12;6.60;;;4.38;;
55172;SDS011;41061;52.822;6.860;2022-08-19T13:23:39;8.20;;;4.80;;
55172;SDS011;41061;52.822;6.860;2022-08-19T13:26:06;7.00;;;4.50;;
55172;SDS011;41061;52.822;6.860;2022-08-19T13:28:33;5.68;;;4.32;;
55172;SDS011;41061;52.822;6.860;2022-08-19T13:31:18;4.95;;;4.20;;
55172;SDS011;41061;52.822;6.860;2022-08-19T13:34:05;6.47;;;3.78;;
55172;SDS011;41061;52.822;6.860;2022-08-19T13:36:35;5.93;;;3.38;;
55172;SDS011;41061;52.822;6.860;2022-08-19T13:39:01;5.78;;;4.13;;
55172;SDS011;41061;52.822;6.860;2022-08-19T13:41:28;5.13;;;3.60;;
55172;SDS011;41061;52.822;6.860;2022-08-19T13:43:54;4.55;;;3.47;;
55172;SDS011;41061;52.822;6.860;2022-08-19T13:46:19;5.22;;;4.00;;
55172;SDS011;41061;52.822;6.860;2022-08-19T13:48:46;5.28;;;4.20;;
55172;SDS011;41061;52.822;6.860;2022-08-19T13:51:16;4.43;;;3.20;;
55172;SDS011;41061;52.822;6.860;2022-08-19T13:53:42;5.43;;;4.35;;
55172;SDS011;41061;52.822;6.860;2022-08-19T13:56:10;7.25;;;4.32;;
55172;SDS011;41061;52.822;6.860;2022-08-19T13:58:38;4.60;;;4.10;;
55172;SDS011;41061;52.822;6.860;2022-08-19T14:01:04;6.97;;;4.20;;
55172;SDS011;41061;52.822;6.860;2022-08-19T14:03:31;8.00;;;3.92;;
55172;SDS011;41061;52.822;6.860;2022-08-19T14:05:58;4.75;;;4.30;;
55172;SDS011;41061;52.822;6.860;2022-08-19T14:08:25;6.78;;;4.38;;
55172;SDS011;41061;52.822;6.860;2022-08-19T14:10:52;5.72;;;4.40;;
55172;SDS011;41061;52.822;6.860;2022-08-19T14:13:22;5.75;;;4.25;;
55172;SDS011;41061;52.822;6.860;2022-08-19T14:15:48;7.25;;;4.57;;
55172;SDS011;41061;52.822;6.860;2022-08-19T14:18:16;5.63;;;4.18;;
55172;SDS011;41061;52.822;6.860;2022-08-19T14:20:43;14.90;;;4.82;;
55172;SDS011;41061;52.822;6.860;2022-08-19T14:23:09;4.72;;;3.88;;
55172;SDS011;41061;52.822;6.860;2022-08-19T14:25:37;4.82;;;3.63;;
55172;SDS011;41061;52.822;6.860;2022-08-19T14:28:02;4.82;;;3.53;;
55172;SDS011;41061;52.822;6.860;2022-08-19T14:30:32;5.78;;;3.95;;
55172;SDS011;41061;52.822;6.860;2022-08-19T14:33:00;6.70;;;4.03;;
55172;SDS011;41061;52.822;6.860;2022-08-19T14:35:27;5.43;;;4.10;;
55172;SDS011;41061;52.822;6.860;2022-08-19T14:37:54;5.30;;;4.47;;
55172;SDS011;41061;52.822;6.860;2022-08-19T14:40:21;10.65;;;5.10;;
55172;SDS011;41061;52.822;6.860;2022-08-19T14:42:54;8.35;;;4.50;;
55172;SDS011;41061;52.822;6.860;2022-08-19T14:45:24;6.75;;;4.25;;
55172;SDS011;41061;52.822;6.860;2022-08-19T14:47:52;5.68;;;3.90;;
55172;SDS011;41061;52.822;6.860;2022-08-19T14:50:17;7.97;;;4.43;;
55172;SDS011;41061;52.822;6.860;2022-08-19T14:52:47;6.28;;;4.00;;